createdAt,value
2022-12-11T00:00:28.698Z,988.17
2022-12-11T00:01:28.639Z,988.25
2022-12-11T00:02:28.697Z,988.19
2022-12-11T00:03:28.685Z,988.19
2022-12-11T00:04:28.657Z,988.21
2022-12-11T00:05:28.642Z,988.18
2022-12-11T00:06:28.592Z,988.15
2022-12-11T00:07:28.594Z,988.17
2022-12-11T00:08:28.650Z,988.24
2022-12-11T00:09:28.655Z,988.20
2022-12-11T00:10:31.083Z,988.20
2022-12-11T00:11:28.601Z,988.20
2022-12-11T00:12:28.588Z,988.15
2022-12-11T00:13:28.616Z,988.19
2022-12-11T00:14:28.599Z,988.17
2022-12-11T00:15:28.619Z,988.20
2022-12-11T00:16:28.602Z,988.20
2022-12-11T00:17:28.559Z,988.21
2022-12-11T00:18:28.553Z,988.19
2022-12-11T00:19:28.569Z,988.20
2022-12-11T00:20:28.539Z,988.21
2022-12-11T00:21:28.633Z,988.16
2022-12-11T00:22:28.511Z,988.15
2022-12-11T00:23:28.544Z,988.13
2022-12-11T00:24:28.534Z,988.18
2022-12-11T00:25:28.516Z,988.25
2022-12-11T00:26:28.502Z,988.25
2022-12-11T00:27:28.519Z,988.19
2022-12-11T00:28:28.491Z,988.24
2022-12-11T00:29:28.493Z,988.21
2022-12-11T00:30:28.489Z,988.13
2022-12-11T00:31:28.550Z,988.18
2022-12-11T00:32:29.134Z,988.16
2022-12-11T00:33:28.502Z,988.08
2022-12-11T00:34:28.470Z,988.11
2022-12-11T00:35:28.443Z,988.14
2022-12-11T00:36:28.498Z,988.11
2022-12-11T00:37:28.499Z,988.14
2022-12-11T00:38:28.429Z,988.11
2022-12-11T00:39:28.427Z,988.09
2022-12-11T00:40:28.414Z,988.08
2022-12-11T00:41:28.451Z,988.13
2022-12-11T00:42:28.445Z,988.17
2022-12-11T00:43:28.410Z,988.16
2022-12-11T00:44:28.396Z,988.11
2022-12-11T00:45:28.407Z,988.11
2022-12-11T00:46:28.403Z,988.09
2022-12-11T00:47:28.455Z,988.08
2022-12-11T00:48:28.412Z,988.07
2022-12-11T00:49:28.392Z,988.13
2022-12-11T00:50:28.359Z,988.13
2022-12-11T00:51:28.396Z,988.17
2022-12-11T00:52:28.387Z,988.17
2022-12-11T00:53:28.357Z,988.12
2022-12-11T00:54:28.338Z,988.12
2022-12-11T00:55:28.333Z,988.22
2022-12-11T00:56:28.315Z,988.24
2022-12-11T00:57:28.348Z,988.21
2022-12-11T00:58:28.335Z,988.24
2022-12-11T00:59:28.364Z,988.26
2022-12-11T01:00:28.310Z,988.33
2022-12-11T01:01:28.339Z,988.35
2022-12-11T01:02:28.328Z,988.32
2022-12-11T01:03:28.292Z,988.33
2022-12-11T01:04:28.302Z,988.26
2022-12-11T01:05:28.292Z,988.30
2022-12-11T01:06:28.315Z,988.27
2022-12-11T01:07:28.283Z,988.26
2022-12-11T01:08:28.306Z,988.23
2022-12-11T01:09:28.264Z,988.33
2022-12-11T01:10:28.321Z,988.35
2022-12-11T01:11:28.228Z,988.31
2022-12-11T01:12:28.257Z,988.30
2022-12-11T01:13:28.282Z,988.32
2022-12-11T01:14:28.246Z,988.36
2022-12-11T01:15:28.257Z,988.34
2022-12-11T01:16:28.248Z,988.31
2022-12-11T01:17:28.209Z,988.26
2022-12-11T01:18:28.209Z,988.30
2022-12-11T01:19:28.224Z,988.26
2022-12-11T01:20:28.203Z,988.29
2022-12-11T01:21:28.185Z,988.30
2022-12-11T01:22:28.167Z,988.20
2022-12-11T01:23:28.157Z,988.21
2022-12-11T01:24:28.165Z,988.23
2022-12-11T01:25:28.178Z,988.27
2022-12-11T01:26:28.180Z,988.21
2022-12-11T01:27:28.150Z,988.23
2022-12-11T01:28:28.135Z,988.21
2022-12-11T01:29:28.134Z,988.22
2022-12-11T01:30:28.176Z,988.18
2022-12-11T01:31:28.162Z,988.18
2022-12-11T01:32:28.113Z,988.20
2022-12-11T01:33:28.132Z,988.22
2022-12-11T01:34:28.115Z,988.31
2022-12-11T01:35:28.120Z,988.31
2022-12-11T01:36:28.128Z,988.29
2022-12-11T01:37:28.098Z,988.32
2022-12-11T01:38:28.097Z,988.29
2022-12-11T01:39:28.075Z,988.31
2022-12-11T01:40:28.072Z,988.27
2022-12-11T01:41:28.117Z,988.28
2022-12-11T01:42:28.082Z,988.32
2022-12-11T01:43:28.092Z,988.26
2022-12-11T01:44:28.051Z,988.31
2022-12-11T01:45:28.184Z,988.30
2022-12-11T01:46:28.132Z,988.31
2022-12-11T01:47:28.057Z,988.31
2022-12-11T01:48:28.072Z,988.28
2022-12-11T01:49:28.058Z,988.29
2022-12-11T01:50:28.032Z,988.26
2022-12-11T01:51:28.006Z,988.28
2022-12-11T01:52:28.021Z,988.22
2022-12-11T01:53:28.044Z,988.30
2022-12-11T01:54:28.022Z,988.25
2022-12-11T01:55:27.991Z,988.27
2022-12-11T01:56:28.006Z,988.23
2022-12-11T01:57:27.980Z,988.29
2022-12-11T01:58:27.959Z,988.33
2022-12-11T01:59:28.016Z,988.34
2022-12-11T02:00:27.971Z,988.30
2022-12-11T02:01:27.983Z,988.32
2022-12-11T02:02:27.984Z,988.30
2022-12-11T02:03:27.959Z,988.37
2022-12-11T02:04:27.972Z,988.30
2022-12-11T02:05:27.945Z,988.36
2022-12-11T02:06:27.935Z,988.33
2022-12-11T02:07:27.924Z,988.26
2022-12-11T02:08:28.028Z,988.33
2022-12-11T02:09:27.951Z,988.31
2022-12-11T02:10:27.897Z,988.30
2022-12-11T02:11:27.904Z,988.36
2022-12-11T02:12:27.890Z,988.29
2022-12-11T02:13:27.883Z,988.30
2022-12-11T02:14:27.936Z,988.29
2022-12-11T02:15:27.930Z,988.31
2022-12-11T02:16:27.962Z,988.26
2022-12-11T02:17:27.901Z,988.32
2022-12-11T02:18:27.883Z,988.24
2022-12-11T02:19:27.887Z,988.26
2022-12-11T02:20:27.858Z,988.23
2022-12-11T02:21:27.882Z,988.22
2022-12-11T02:22:27.863Z,988.11
2022-12-11T02:23:27.830Z,988.21
2022-12-11T02:24:27.833Z,988.13
2022-12-11T02:25:27.869Z,988.13
2022-12-11T02:26:27.838Z,988.07
2022-12-11T02:27:27.835Z,988.09
2022-12-11T02:28:27.860Z,988.13
2022-12-11T02:29:27.830Z,988.07
2022-12-11T02:30:27.828Z,988.10
2022-12-11T02:31:28.860Z,988.08
2022-12-11T02:32:27.795Z,988.11
2022-12-11T02:33:27.822Z,988.06
2022-12-11T02:34:27.797Z,988.08
2022-12-11T02:35:27.789Z,988.04
2022-12-11T02:36:27.774Z,988.05
2022-12-11T02:37:27.785Z,988.10
2022-12-11T02:38:27.774Z,988.03
2022-12-11T02:39:27.771Z,988.05
2022-12-11T02:40:27.746Z,988.09
2022-12-11T02:41:27.759Z,988.12
2022-12-11T02:42:27.760Z,988.10
2022-12-11T02:43:27.764Z,988.11
2022-12-11T02:44:27.789Z,988.10
2022-12-11T02:45:27.761Z,988.14
2022-12-11T02:46:27.718Z,988.11
2022-12-11T02:47:27.714Z,988.13
2022-12-11T02:48:27.711Z,988.15
2022-12-11T02:49:27.742Z,988.21
2022-12-11T02:50:27.710Z,988.14
2022-12-11T02:51:27.679Z,988.23
2022-12-11T02:52:27.675Z,988.20
2022-12-11T02:53:27.679Z,988.15
2022-12-11T02:54:27.688Z,988.22
2022-12-11T02:55:27.644Z,988.13
2022-12-11T02:56:27.650Z,988.16
2022-12-11T02:57:27.661Z,988.08
2022-12-11T02:58:27.641Z,988.11
2022-12-11T02:59:27.666Z,988.09
2022-12-11T03:00:27.632Z,988.12
2022-12-11T03:01:27.702Z,988.05
2022-12-11T03:02:27.655Z,988.10
2022-12-11T03:03:27.621Z,988.10
2022-12-11T03:04:27.606Z,988.12
2022-12-11T03:05:27.584Z,988.13
2022-12-11T03:06:27.628Z,988.11
2022-12-11T03:07:27.582Z,988.10
2022-12-11T03:08:27.671Z,988.10
2022-12-11T03:09:27.577Z,988.08
2022-12-11T03:10:27.608Z,988.06
2022-12-11T03:11:27.632Z,988.10
2022-12-11T03:12:27.580Z,988.01
2022-12-11T03:13:27.564Z,988.09
2022-12-11T03:14:27.567Z,988.08
2022-12-11T03:15:27.540Z,988.05
2022-12-11T03:16:27.612Z,988.08
2022-12-11T03:17:27.556Z,988.09
2022-12-11T03:18:27.529Z,988.12
2022-12-11T03:19:27.512Z,988.09
2022-12-11T03:20:27.534Z,988.09
2022-12-11T03:21:28.548Z,988.07
2022-12-11T03:22:27.499Z,988.13
2022-12-11T03:23:27.511Z,988.11
2022-12-11T03:24:27.485Z,988.13
2022-12-11T03:25:27.492Z,988.04
2022-12-11T03:26:27.514Z,988.05
2022-12-11T03:27:27.480Z,988.08
2022-12-11T03:28:27.492Z,988.08
2022-12-11T03:29:27.490Z,988.09
2022-12-11T03:30:27.508Z,988.07
2022-12-11T03:31:27.492Z,988.12
2022-12-11T03:32:27.486Z,988.07
2022-12-11T03:33:27.441Z,988.10
2022-12-11T03:34:27.448Z,988.14
2022-12-11T03:35:27.435Z,988.13
2022-12-11T03:36:27.463Z,988.16
2022-12-11T03:37:27.431Z,988.11
2022-12-11T03:38:27.453Z,988.18
2022-12-11T03:39:27.404Z,988.20
2022-12-11T03:40:27.425Z,988.22
2022-12-11T03:41:27.411Z,988.24
2022-12-11T03:42:27.398Z,988.18
2022-12-11T03:43:27.450Z,988.24
2022-12-11T03:44:27.391Z,988.21
2022-12-11T03:45:27.380Z,988.23
2022-12-11T03:46:27.432Z,988.20
2022-12-11T03:47:27.371Z,988.22
2022-12-11T03:48:27.381Z,988.21
2022-12-11T03:49:27.413Z,988.24
2022-12-11T03:50:27.373Z,988.20
2022-12-11T03:51:27.349Z,988.24
2022-12-11T03:52:27.355Z,988.21
2022-12-11T03:53:27.368Z,988.26
2022-12-11T03:54:27.320Z,988.20
2022-12-11T03:55:27.326Z,988.18
2022-12-11T03:56:27.341Z,988.23
2022-12-11T03:57:27.435Z,988.21
2022-12-11T03:58:27.318Z,988.22
2022-12-11T03:59:27.317Z,988.24
2022-12-11T04:00:27.313Z,988.19
2022-12-11T04:01:27.337Z,988.18
2022-12-11T04:02:27.301Z,988.18
2022-12-11T04:03:27.275Z,988.15
2022-12-11T04:04:27.281Z,988.20
2022-12-11T04:05:27.266Z,988.22
2022-12-11T04:06:27.245Z,988.14
2022-12-11T04:07:27.261Z,988.21
2022-12-11T04:08:27.305Z,988.10
2022-12-11T04:09:27.238Z,988.10
2022-12-11T04:10:28.264Z,988.10
2022-12-11T04:11:27.237Z,988.15
2022-12-11T04:12:27.227Z,988.13
2022-12-11T04:13:27.222Z,988.10
2022-12-11T04:14:27.216Z,988.03
2022-12-11T04:15:27.257Z,988.08
2022-12-11T04:16:27.222Z,988.09
2022-12-11T04:17:27.222Z,988.05
2022-12-11T04:18:27.192Z,988.07
2022-12-11T04:19:28.238Z,988.05
2022-12-11T04:20:27.180Z,988.05
2022-12-11T04:21:27.188Z,988.04
2022-12-11T04:22:27.176Z,988.12
2022-12-11T04:23:27.172Z,988.05
2022-12-11T04:24:27.152Z,988.06
2022-12-11T04:25:27.169Z,988.00
2022-12-11T04:26:27.152Z,988.06
2022-12-11T04:27:27.179Z,988.05
2022-12-11T04:28:27.175Z,988.10
2022-12-11T04:29:27.139Z,988.09
2022-12-11T04:30:32.453Z,988.06
2022-12-11T04:31:29.173Z,988.09
2022-12-11T04:32:27.137Z,988.13
2022-12-11T04:33:27.163Z,988.01
2022-12-11T04:34:27.120Z,988.07
2022-12-11T04:35:27.139Z,988.04
2022-12-11T04:36:27.123Z,988.04
2022-12-11T04:37:27.109Z,988.02
2022-12-11T04:38:27.100Z,987.99
2022-12-11T04:39:27.142Z,987.98
2022-12-11T04:40:32.864Z,987.97
2022-12-11T04:41:28.065Z,987.98
2022-12-11T04:42:27.061Z,988.02
2022-12-11T04:43:27.059Z,988.02
2022-12-11T04:44:27.170Z,987.98
2022-12-11T04:45:27.074Z,987.95
2022-12-11T04:46:27.085Z,987.98
2022-12-11T04:47:27.094Z,987.98
2022-12-11T04:48:27.027Z,987.95
2022-12-11T04:49:27.060Z,988.01
2022-12-11T04:50:27.026Z,987.90
2022-12-11T04:51:27.031Z,987.90
2022-12-11T04:52:27.004Z,987.89
2022-12-11T04:53:27.023Z,987.88
2022-12-11T04:54:27.054Z,987.90
2022-12-11T04:55:27.007Z,987.85
2022-12-11T04:56:26.987Z,987.87
2022-12-11T04:57:26.982Z,987.85
2022-12-11T04:58:26.988Z,987.86
2022-12-11T04:59:26.998Z,987.90
2022-12-11T05:00:27.026Z,987.87
2022-12-11T05:01:27.039Z,987.88
2022-12-11T05:02:27.037Z,987.90
2022-12-11T05:03:26.937Z,987.90
2022-12-11T05:04:26.942Z,987.94
2022-12-11T05:05:26.946Z,987.89
2022-12-11T05:06:26.989Z,987.91
2022-12-11T05:07:26.926Z,987.88
2022-12-11T05:08:27.005Z,987.89
2022-12-11T05:09:26.904Z,987.83
2022-12-11T05:10:26.903Z,987.91
2022-12-11T05:11:26.940Z,987.93
2022-12-11T05:12:26.899Z,987.97
2022-12-11T05:13:26.885Z,987.92
2022-12-11T05:14:26.911Z,987.94
2022-12-11T05:15:26.888Z,987.83
2022-12-11T05:16:26.944Z,987.89
2022-12-11T05:17:26.868Z,987.81
2022-12-11T05:18:26.895Z,987.78
2022-12-11T05:19:26.882Z,987.78
2022-12-11T05:20:26.913Z,987.77
2022-12-11T05:21:31.676Z,987.81
2022-12-11T05:22:28.834Z,987.72
2022-12-11T05:23:26.851Z,987.78
2022-12-11T05:24:26.828Z,987.75
2022-12-11T05:25:26.837Z,987.74
2022-12-11T05:26:26.855Z,987.74
2022-12-11T05:27:27.864Z,987.72
2022-12-11T05:28:26.829Z,987.68
2022-12-11T05:29:26.795Z,987.73
2022-12-11T05:30:26.830Z,987.75
2022-12-11T05:31:26.854Z,987.79
2022-12-11T05:32:26.808Z,987.75
2022-12-11T05:33:26.921Z,987.81
2022-12-11T05:34:26.798Z,987.74
2022-12-11T05:35:26.754Z,987.76
2022-12-11T05:36:26.760Z,987.82
2022-12-11T05:37:26.794Z,987.72
2022-12-11T05:38:26.751Z,987.77
2022-12-11T05:39:26.741Z,987.76
2022-12-11T05:40:26.767Z,987.72
2022-12-11T05:41:26.743Z,987.69
2022-12-11T05:42:28.985Z,987.69
2022-12-11T05:43:27.742Z,987.67
2022-12-11T05:44:26.738Z,987.70
2022-12-11T05:45:26.721Z,987.64
2022-12-11T05:46:26.823Z,987.70
2022-12-11T05:47:26.709Z,987.70
2022-12-11T05:48:26.767Z,987.70
2022-12-11T05:49:30.840Z,987.71
2022-12-11T05:50:27.682Z,987.69
2022-12-11T05:51:26.667Z,987.69
2022-12-11T05:52:26.669Z,987.71
2022-12-11T05:53:26.725Z,987.76
2022-12-11T05:54:26.671Z,987.75
2022-12-11T05:55:26.686Z,987.72
2022-12-11T05:56:26.644Z,987.70
2022-12-11T05:57:26.657Z,987.68
2022-12-11T05:58:26.651Z,987.73
2022-12-11T05:59:26.676Z,987.75
2022-12-11T06:00:28.466Z,987.70
2022-12-11T06:01:26.639Z,987.69
2022-12-11T06:02:26.653Z,987.70
2022-12-11T06:03:26.608Z,987.69
2022-12-11T06:04:26.631Z,987.70
2022-12-11T06:05:26.631Z,987.66
2022-12-11T06:06:26.576Z,987.71
2022-12-11T06:07:27.608Z,987.70
2022-12-11T06:08:26.609Z,987.73
2022-12-11T06:09:26.573Z,987.75
2022-12-11T06:10:26.573Z,987.74
2022-12-11T06:11:26.549Z,987.75
2022-12-11T06:12:26.598Z,987.73
2022-12-11T06:13:26.529Z,987.74
2022-12-11T06:14:26.597Z,987.72
2022-12-11T06:15:26.583Z,987.77
2022-12-11T06:16:26.622Z,987.73
2022-12-11T06:17:26.540Z,987.68
2022-12-11T06:18:26.550Z,987.71
2022-12-11T06:19:26.513Z,987.73
2022-12-11T06:20:26.529Z,987.74
2022-12-11T06:21:26.531Z,987.73
2022-12-11T06:22:26.504Z,987.75
2022-12-11T06:23:26.505Z,987.69
2022-12-11T06:24:26.496Z,987.74
2022-12-11T06:25:26.474Z,987.76
2022-12-11T06:26:26.487Z,987.73
2022-12-11T06:27:26.503Z,987.71
2022-12-11T06:28:26.466Z,987.69
2022-12-11T06:29:26.488Z,987.69
2022-12-11T06:30:38.997Z,987.68
2022-12-11T06:31:27.528Z,987.66
2022-12-11T06:32:26.469Z,987.67
2022-12-11T06:33:26.432Z,987.64
2022-12-11T06:34:26.423Z,987.59
2022-12-11T06:35:26.443Z,987.62
2022-12-11T06:36:26.418Z,987.60
2022-12-11T06:37:26.436Z,987.57
2022-12-11T06:38:26.418Z,987.58
2022-12-11T06:39:26.389Z,987.63
2022-12-11T06:40:26.423Z,987.59
2022-12-11T06:41:26.379Z,987.61
2022-12-11T06:42:26.408Z,987.58
2022-12-11T06:43:26.386Z,987.60
2022-12-11T06:44:26.372Z,987.61
2022-12-11T06:45:26.403Z,987.57
2022-12-11T06:46:27.376Z,987.64
2022-12-11T06:47:26.417Z,987.63
2022-12-11T06:48:26.339Z,987.63
2022-12-11T06:49:26.367Z,987.58
2022-12-11T06:50:26.381Z,987.60
2022-12-11T06:51:26.334Z,987.67
2022-12-11T06:52:26.328Z,987.60
2022-12-11T06:53:26.336Z,987.61
2022-12-11T06:54:26.363Z,987.55
2022-12-11T06:55:26.316Z,987.62
2022-12-11T06:56:26.316Z,987.61
2022-12-11T06:57:26.294Z,987.60
2022-12-11T06:58:26.389Z,987.67
2022-12-11T06:59:26.286Z,987.70
2022-12-11T07:00:26.320Z,987.65
2022-12-11T07:01:26.338Z,987.67
2022-12-11T07:02:26.330Z,987.65
2022-12-11T07:03:26.265Z,987.61
2022-12-11T07:04:26.268Z,987.65
2022-12-11T07:05:26.264Z,987.64
2022-12-11T07:06:26.234Z,987.66
2022-12-11T07:07:26.286Z,987.63
2022-12-11T07:08:26.276Z,987.67
2022-12-11T07:09:26.225Z,987.66
2022-12-11T07:10:26.220Z,987.63
2022-12-11T07:11:26.229Z,987.61
2022-12-11T07:12:26.200Z,987.62
2022-12-11T07:13:26.224Z,987.63
2022-12-11T07:14:26.242Z,987.57
2022-12-11T07:15:26.188Z,987.59
2022-12-11T07:16:26.244Z,987.60
2022-12-11T07:17:26.169Z,987.56
2022-12-11T07:18:26.212Z,987.58
2022-12-11T07:19:26.160Z,987.51
2022-12-11T07:20:26.171Z,987.51
2022-12-11T07:21:26.138Z,987.56
2022-12-11T07:22:26.231Z,987.57
2022-12-11T07:23:26.149Z,987.54
2022-12-11T07:24:26.144Z,987.54
2022-12-11T07:25:26.124Z,987.57
2022-12-11T07:26:26.170Z,987.57
2022-12-11T07:27:26.161Z,987.55
2022-12-11T07:28:26.160Z,987.56
2022-12-11T07:29:26.092Z,987.55
2022-12-11T07:30:26.111Z,987.60
2022-12-11T07:31:26.181Z,987.58
2022-12-11T07:32:26.295Z,987.60
2022-12-11T07:33:26.144Z,987.59
2022-12-11T07:34:26.087Z,987.61
2022-12-11T07:35:26.086Z,987.59
2022-12-11T07:36:26.067Z,987.58
2022-12-11T07:37:26.057Z,987.58
2022-12-11T07:38:26.081Z,987.51
2022-12-11T07:39:26.060Z,987.51
2022-12-11T07:40:26.041Z,987.49
2022-12-11T07:41:26.092Z,987.55
2022-12-11T07:42:26.025Z,987.54
2022-12-11T07:43:26.064Z,987.59
2022-12-11T07:44:26.047Z,987.52
2022-12-11T07:45:26.043Z,987.56
2022-12-11T07:46:26.050Z,987.53
2022-12-11T07:47:26.005Z,987.50
2022-12-11T07:48:26.025Z,987.55
2022-12-11T07:49:26.022Z,987.57
2022-12-11T07:50:25.989Z,987.56
2022-12-11T07:51:26.012Z,987.57
2022-12-11T07:52:25.990Z,987.52
2022-12-11T07:53:25.998Z,987.55
2022-12-11T07:54:26.014Z,987.59
2022-12-11T07:55:25.979Z,987.63
2022-12-11T07:56:25.947Z,987.63
2022-12-11T07:57:25.962Z,987.64
2022-12-11T07:58:25.931Z,987.65
2022-12-11T07:59:26.027Z,987.64
2022-12-11T08:00:25.975Z,987.68
2022-12-11T08:01:26.052Z,987.62
2022-12-11T08:02:25.942Z,987.65
2022-12-11T08:03:25.940Z,987.62
2022-12-11T08:04:25.953Z,987.57
2022-12-11T08:05:25.944Z,987.67
2022-12-11T08:06:25.923Z,987.60
2022-12-11T08:07:25.914Z,987.62
2022-12-11T08:08:25.934Z,987.64
2022-12-11T08:09:25.903Z,987.65
2022-12-11T08:10:25.963Z,987.66
2022-12-11T08:11:25.855Z,987.69
2022-12-11T08:12:25.859Z,987.69
2022-12-11T08:13:25.853Z,987.66
2022-12-11T08:14:25.858Z,987.71
2022-12-11T08:15:25.862Z,987.73
2022-12-11T08:16:25.922Z,987.74
2022-12-11T08:17:29.605Z,987.74
2022-12-11T08:18:27.821Z,987.68
2022-12-11T08:19:25.822Z,987.65
2022-12-11T08:20:25.836Z,987.69
2022-12-11T08:21:25.800Z,987.72
2022-12-11T08:22:25.850Z,987.64
2022-12-11T08:23:25.831Z,987.65
2022-12-11T08:24:25.803Z,987.63
2022-12-11T08:25:25.809Z,987.65
2022-12-11T08:26:25.820Z,987.66
2022-12-11T08:27:25.781Z,987.69
2022-12-11T08:28:27.293Z,987.71
2022-12-11T08:29:25.749Z,987.72
2022-12-11T08:30:25.780Z,987.70
2022-12-11T08:31:25.767Z,987.66
2022-12-11T08:32:25.775Z,987.66
2022-12-11T08:33:25.751Z,987.67
2022-12-11T08:34:25.737Z,987.65
2022-12-11T08:35:25.718Z,987.64
2022-12-11T08:36:25.733Z,987.68
2022-12-11T08:37:25.699Z,987.62
2022-12-11T08:38:25.864Z,987.63
2022-12-11T08:39:25.733Z,987.63
2022-12-11T08:40:25.699Z,987.59
2022-12-11T08:41:25.684Z,987.66
2022-12-11T08:42:25.693Z,987.65
2022-12-11T08:43:25.666Z,987.64
2022-12-11T08:44:25.707Z,987.63
2022-12-11T08:45:25.673Z,987.59
2022-12-11T08:46:25.761Z,987.55
2022-12-11T08:47:25.770Z,987.56
2022-12-11T08:48:25.668Z,987.58
2022-12-11T08:49:27.604Z,987.57
2022-12-11T08:50:26.632Z,987.51
2022-12-11T08:51:25.632Z,987.56
2022-12-11T08:52:25.644Z,987.58
2022-12-11T08:53:25.627Z,987.59
2022-12-11T08:54:25.668Z,987.59
2022-12-11T08:55:25.650Z,987.55
2022-12-11T08:56:25.636Z,987.61
2022-12-11T08:57:25.619Z,987.60
2022-12-11T08:58:25.590Z,987.59
2022-12-11T08:59:25.654Z,987.63
2022-12-11T09:00:25.646Z,987.61
2022-12-11T09:01:25.665Z,987.53
2022-12-11T09:02:25.627Z,987.53
2022-12-11T09:03:25.571Z,987.61
2022-12-11T09:04:25.593Z,987.56
2022-12-11T09:05:25.593Z,987.63
2022-12-11T09:06:25.593Z,987.61
2022-12-11T09:07:25.559Z,987.60
2022-12-11T09:08:25.610Z,987.54
2022-12-11T09:09:25.565Z,987.63
2022-12-11T09:10:25.589Z,987.62
2022-12-11T09:11:25.513Z,987.58
2022-12-11T09:12:25.537Z,987.59
2022-12-11T09:13:25.499Z,987.60
2022-12-11T09:14:25.541Z,987.58
2022-12-11T09:15:25.525Z,987.62
2022-12-11T09:16:25.509Z,987.64
2022-12-11T09:17:25.532Z,987.58
2022-12-11T09:18:25.494Z,987.56
2022-12-11T09:19:30.666Z,987.58
2022-12-11T09:20:27.468Z,987.59
2022-12-11T09:21:25.470Z,987.57
2022-12-11T09:22:25.491Z,987.61
2022-12-11T09:23:25.467Z,987.58
2022-12-11T09:24:25.490Z,987.60
2022-12-11T09:25:25.439Z,987.63
2022-12-11T09:26:25.430Z,987.68
2022-12-11T09:27:25.435Z,987.67
2022-12-11T09:28:25.447Z,987.67
2022-12-11T09:29:25.399Z,987.64
2022-12-11T09:30:25.430Z,987.68
2022-12-11T09:31:25.392Z,987.70
2022-12-11T09:32:25.403Z,987.64
2022-12-11T09:33:25.408Z,987.64
2022-12-11T09:34:29.126Z,987.64
2022-12-11T09:35:26.407Z,987.68
2022-12-11T09:36:25.362Z,987.64
2022-12-11T09:37:25.355Z,987.64
2022-12-11T09:38:25.342Z,987.61
2022-12-11T09:39:25.392Z,987.61
2022-12-11T09:40:25.343Z,987.65
2022-12-11T09:41:25.339Z,987.57
2022-12-11T09:42:25.315Z,987.57
2022-12-11T09:43:25.328Z,987.54
2022-12-11T09:44:25.375Z,987.49
2022-12-11T09:45:25.320Z,987.55
2022-12-11T09:46:26.875Z,987.48
2022-12-11T09:47:25.375Z,987.56
2022-12-11T09:48:25.303Z,987.47
2022-12-11T09:49:25.313Z,987.49
2022-12-11T09:50:25.415Z,987.50
2022-12-11T09:51:25.337Z,987.49
2022-12-11T09:52:25.714Z,987.52
2022-12-11T09:53:27.025Z,987.51
2022-12-11T09:54:26.588Z,987.54
2022-12-11T09:55:25.348Z,987.52
2022-12-11T09:56:25.313Z,987.47
2022-12-11T09:57:25.254Z,987.54
2022-12-11T09:58:25.413Z,987.48
2022-12-11T09:59:25.287Z,987.52
2022-12-11T10:00:25.313Z,987.51
2022-12-11T10:01:25.310Z,987.45
2022-12-11T10:02:25.351Z,987.50
2022-12-11T10:03:25.278Z,987.57
2022-12-11T10:04:25.309Z,987.50
2022-12-11T10:05:25.232Z,987.55
2022-12-11T10:06:25.180Z,987.53
2022-12-11T10:07:25.299Z,987.56
2022-12-11T10:08:25.222Z,987.49
2022-12-11T10:09:25.161Z,987.56
2022-12-11T10:10:25.201Z,987.54
2022-12-11T10:11:25.202Z,987.56
2022-12-11T10:12:25.228Z,987.58
2022-12-11T10:13:25.236Z,987.56
2022-12-11T10:14:25.157Z,987.54
2022-12-11T10:15:25.174Z,987.58
2022-12-11T10:16:25.156Z,987.57
2022-12-11T10:17:25.185Z,987.55
2022-12-11T10:18:25.123Z,987.59
2022-12-11T10:19:25.112Z,987.52
2022-12-11T10:20:25.107Z,987.49
2022-12-11T10:21:25.136Z,987.50
2022-12-11T10:22:25.098Z,987.49
2022-12-11T10:23:25.103Z,987.46
2022-12-11T10:24:57.926Z,987.46
2022-12-11T10:25:26.352Z,987.44
2022-12-11T10:26:25.081Z,987.41
2022-12-11T10:27:25.086Z,987.46
2022-12-11T10:28:25.077Z,987.40
2022-12-11T10:29:25.065Z,987.37
2022-12-11T10:30:25.052Z,987.38
2022-12-11T10:31:25.159Z,987.36
2022-12-11T10:32:25.070Z,987.33
2022-12-11T10:33:25.075Z,987.35
2022-12-11T10:34:25.027Z,987.32
2022-12-11T10:35:25.023Z,987.37
2022-12-11T10:36:25.030Z,987.33
2022-12-11T10:37:25.015Z,987.33
2022-12-11T10:38:25.046Z,987.36
2022-12-11T10:39:25.025Z,987.33
2022-12-11T10:40:25.031Z,987.29
2022-12-11T10:41:24.993Z,987.30
2022-12-11T10:42:24.980Z,987.32
2022-12-11T10:43:24.977Z,987.29
2022-12-11T10:44:25.046Z,987.31
2022-12-11T10:45:24.952Z,987.31
2022-12-11T10:46:24.994Z,987.35
2022-12-11T10:47:25.004Z,987.35
2022-12-11T10:48:24.957Z,987.23
2022-12-11T10:49:24.974Z,987.23
2022-12-11T10:50:24.961Z,987.23
2022-12-11T10:51:24.947Z,987.30
2022-12-11T10:52:24.927Z,987.30
2022-12-11T10:53:24.922Z,987.19
2022-12-11T10:54:24.907Z,987.16
2022-12-11T10:55:24.932Z,987.18
2022-12-11T10:56:24.898Z,987.17
2022-12-11T10:57:24.892Z,987.18
2022-12-11T10:58:24.944Z,987.19
2022-12-11T10:59:24.881Z,987.14
2022-12-11T11:00:24.907Z,987.18
2022-12-11T11:01:24.948Z,987.14
2022-12-11T11:02:24.904Z,987.13
2022-12-11T11:03:24.961Z,987.14
2022-12-11T11:04:24.855Z,987.11
2022-12-11T11:05:24.883Z,987.06
2022-12-11T11:06:24.868Z,987.06
2022-12-11T11:07:24.860Z,987.06
2022-12-11T11:08:24.887Z,987.07
2022-12-11T11:09:24.829Z,987.13
2022-12-11T11:10:24.893Z,987.08
2022-12-11T11:11:24.822Z,987.07
2022-12-11T11:12:24.810Z,987.10
2022-12-11T11:13:24.840Z,987.13
2022-12-11T11:14:24.902Z,987.12
2022-12-11T11:15:24.808Z,987.13
2022-12-11T11:16:24.852Z,987.06
2022-12-11T11:17:24.782Z,987.07
2022-12-11T11:18:24.770Z,987.05
2022-12-11T11:19:24.765Z,987.03
2022-12-11T11:20:24.782Z,987.06
2022-12-11T11:21:24.756Z,987.03
2022-12-11T11:22:24.751Z,986.97
2022-12-11T11:23:24.744Z,986.96
2022-12-11T11:24:24.734Z,986.93
2022-12-11T11:25:24.791Z,986.94
2022-12-11T11:26:30.764Z,986.97
2022-12-11T11:27:25.730Z,986.94
2022-12-11T11:28:24.733Z,986.94
2022-12-11T11:29:24.721Z,986.95
2022-12-11T11:30:24.742Z,986.92
2022-12-11T11:31:24.858Z,986.90
2022-12-11T11:32:24.693Z,986.93
2022-12-11T11:33:24.709Z,986.89
2022-12-11T11:34:24.680Z,986.83
2022-12-11T11:35:24.690Z,986.83
2022-12-11T11:36:24.677Z,986.87
2022-12-11T11:37:24.677Z,986.82
2022-12-11T11:38:24.709Z,986.84
2022-12-11T11:39:24.668Z,986.85
2022-12-11T11:40:24.658Z,986.83
2022-12-11T11:41:24.644Z,986.87
2022-12-11T11:42:24.677Z,986.91
2022-12-11T11:43:24.644Z,986.88
2022-12-11T11:44:24.647Z,986.85
2022-12-11T11:45:24.634Z,986.90
2022-12-11T11:46:24.707Z,986.86
2022-12-11T11:47:24.617Z,986.86
2022-12-11T11:48:24.609Z,986.87
2022-12-11T11:49:24.623Z,986.77
2022-12-11T11:50:24.616Z,986.78
2022-12-11T11:51:24.591Z,986.75
2022-12-11T11:52:24.689Z,986.78
2022-12-11T11:53:24.561Z,986.76
2022-12-11T11:54:24.625Z,986.71
2022-12-11T11:55:24.580Z,986.73
2022-12-11T11:56:24.573Z,986.71
2022-12-11T11:57:24.557Z,986.70
2022-12-11T11:58:24.556Z,986.73
2022-12-11T11:59:24.534Z,986.71
2022-12-11T12:00:27.567Z,986.68
2022-12-11T12:01:25.527Z,986.73
2022-12-11T12:02:24.549Z,986.65
2022-12-11T12:03:24.516Z,986.65
2022-12-11T12:04:24.525Z,986.67
2022-12-11T12:05:24.520Z,986.70
2022-12-11T12:06:24.510Z,986.68
2022-12-11T12:07:24.513Z,986.67
2022-12-11T12:08:24.531Z,986.67
2022-12-11T12:09:24.544Z,986.66
2022-12-11T12:10:24.514Z,986.60
2022-12-11T12:11:24.472Z,986.67
2022-12-11T12:12:28.559Z,986.61
2022-12-11T12:13:48.571Z,986.62
2022-12-11T12:14:51.811Z,986.65
2022-12-11T12:15:26.438Z,986.65
2022-12-11T12:16:51.606Z,986.61
2022-12-11T12:17:26.510Z,986.64
2022-12-11T12:18:24.464Z,986.64
2022-12-11T12:19:24.423Z,986.62
2022-12-11T12:20:24.413Z,986.62
2022-12-11T12:21:24.406Z,986.61
2022-12-11T12:22:24.429Z,986.64
2022-12-11T12:23:24.424Z,986.63
2022-12-11T12:24:24.384Z,986.60
2022-12-11T12:25:24.396Z,986.58
2022-12-11T12:26:24.410Z,986.59
2022-12-11T12:27:51.180Z,986.62
2022-12-11T12:28:26.385Z,986.63